Kennewick, Washington
Current Conditions -  °F | °C
As of 4:53 AM on Friday 28 Nov 2014 (Local Time) from KPSC Reporting Station
Broken Clouds Broken Clouds  
Wind Chill: 57°   Ceiling: 11000
Heat Index: 57°   Visibility: 10mi
Dew Point: 46°   Wind: 9mph
Humidity: 67%   Direction: 90°E
Pressure: 29.64"   Gusts: NA
Location:  46.21°N, 119.11°W
Report Text: KPSC 281253Z AUTO 09008KT 10SM FEW070 SCT085 BKN110 14/08 A2964 RMK AO2 SLP034 T01390078
Loading
Personal Weather Stations






























Interactive Weather Map New forecast layout! Learn more

10-Day Weather Forecast

Advertisements
Track Severe Weather on mobile